Online since October of 2007


Bigbaywx more information Bigbaywx


mount mesnard more information Mount Mesnard


visit our other weather sites:

Template documentation
and downloads

And another site


CBI


nearby metar reports

   
KSAW - Sawyer, Michigan
updated: Jun 21 2024 9:46 am
mostly cloudy  
mostly cloudy  
   wind: ne 6.9 mph
wind: ne 6.9 mph
temperature: 60.8°F
dew point: 48.2°F
humidity: 63%
barometer: 30.27 inHg
clouds: mostly cloudy
visibility: 10 mi
cloud details: mostly cloudy 1829 m,
mostly cloudy 2134 m
KSAW 211346Z 05006KT 10SM BKN060 BKN070 16/09 A3027
KESC - Escanaba, Michigan
updated: Jun 21 2024 9:56 am
  
  
   wind: calm
wind: calm
KESC 211356Z AUTO RMK AO2 SLPNO PWINO FZRANO $
KIMT - Iron Mountain, MI
updated: Jun 21 2024 9:54 am
overcast  
overcast  
   wind: calm
wind: calm
temperature: 64.4°F
dew point: 53.6°F
humidity: 68%
barometer: 30.25 inHg
clouds: overcast
visibility: 10 mi
cloud details: mostly cloudy 1524 m,
overcast 1829 m
KIMT 211354Z AUTO 00000KT 10SM BKN050 OVC060 18/12 A3025 RMK AO2 SLP244 T01830117
KGRB - Green Bay, WI
updated: Jun 21 2024 10:00 am
mostly cloudy  
mostly cloudy  
   wind: ne 9.2 mph
wind: ne 9.2 mph
temperature: 68°F
dew point: 60.8°F
humidity: 78%
barometer: 30.23 inHg
clouds: mostly cloudy
visibility: 10 mi
cloud details: mostly cloudy 701 m,
mostly cloudy 3353 m
KGRB 211400Z 04008KT 10SM BKN023 BKN110 20/16 A3023 RMK AO2 T02000156
KDET - Detroit, MI
updated: Jun 21 2024 9:53 am
partly cloudy  
partly cloudy  
   wind: calm
wind: calm
temperature: 80.6°F
heat index: 82.4°F
dew point: 68°F
humidity: 66%
barometer: 30.22 inHg
clouds: partly cloudy
visibility: 10 mi
cloud details: partly cloudy 3353 m
KDET 211353Z 00000KT 10SM SCT110 27/20 A3022 RMK AO2 SLP230 T02720200
 

script developed by  Saratoga-weather.org adapted for the template by  Weerstation Leuven

you find our weather info also at:

Weather Underground

midwestern weather network

WeatherlinkIP

Citizen Weather Observer Program (CWOP)

equipment we use:

weather-station
Davis VP2

weather-program
Davis Weatherlink.Com

Davis VP2

Davis Weatherlink.Com